Time;durP1;ratioP1;P1;durP2;ratioP2;P2;SDS_P1;SDS_P2;PMS_P1;PMS_P2;Temp;Humidity;BMP_temperature;BMP_pressure;BME280_temperature;BME280_humidity;BME280_pressure;Samples;Min_cycle;Max_cycle;Signal;HPM_P1;HPM_P2
2022/10/11 00:01:48;;;;;;;21.77;4.93;;;;;;;7.12;100.00;102107.41;5043292;28;20025;-85
2022/10/11 00:04:13;;;;;;;18.02;4.43;;;;;;;7.20;100.00;102106.19;5059316;28;20037;-85
2022/10/11 00:06:42;;;;;;;13.88;4.47;;;;;;;7.22;100.00;102115.19;5039968;28;20041;-84
2022/10/11 00:09:07;;;;;;;21.35;4.47;;;;;;;7.05;100.00;102095.03;5023759;28;20502;-84
2022/10/11 00:11:33;;;;;;;20.55;4.55;;;;;;;7.09;100.00;102110.28;5018816;28;20025;-85
2022/10/11 00:13:58;;;;;;;14.73;5.15;;;;;;;6.95;100.00;102113.63;5034855;28;20049;-84
2022/10/11 00:16:24;;;;;;;14.77;4.25;;;;;;;6.86;100.00;102110.41;5037668;28;20094;-84
2022/10/11 00:18:50;;;;;;;12.05;5.00;;;;;;;6.83;100.00;102110.53;5080008;28;20084;-84
2022/10/11 00:21:16;;;;;;;12.82;4.47;;;;;;;6.81;100.00;102116.03;5026704;28;20069;-83
2022/10/11 00:23:42;;;;;;;21.27;4.10;;;;;;;6.76;100.00;102118.06;5026274;28;20067;-83
2022/10/11 00:26:09;;;;;;;17.17;4.50;;;;;;;6.75;100.00;102128.06;5060428;28;20090;-84
2022/10/11 00:28:35;;;;;;;18.75;4.72;;;;;;;6.46;100.00;102091.22;5044106;28;20107;-84
2022/10/11 00:31:01;;;;;;;16.27;4.45;;;;;;;6.68;100.00;102125.69;5043620;28;20036;-83
2022/10/11 00:33:27;;;;;;;25.52;4.20;;;;;;;6.66;100.00;102131.19;5059100;28;20025;-84
2022/10/11 00:35:52;;;;;;;14.40;4.15;;;;;;;6.57;100.00;102131.56;5026231;28;20043;-84
2022/10/11 00:38:18;;;;;;;14.45;4.15;;;;;;;6.54;100.00;102127.16;5043572;28;20040;-84
2022/10/11 00:40:44;;;;;;;12.82;4.13;;;;;;;6.66;100.00;102133.91;5042680;28;20064;-84
2022/10/11 00:43:24;;;;;;;18.88;4.07;;;;;;;6.57;100.00;102131.56;5026352;28;20028;-84
2022/10/11 00:45:55;;;;;;;14.10;3.20;;;;;;;6.67;100.00;102135.66;5043209;28;20040;-84
2022/10/11 00:48:28;;;;;;;16.38;3.70;;;;;;;6.74;100.00;102136.28;5058941;28;20055;-85
2022/10/11 00:50:57;;;;;;;10.85;3.83;;;;;;;6.38;100.00;102131.47;5043265;28;20392;-85
2022/10/11 00:53:23;;;;;;;18.83;4.63;;;;;;;6.44;100.00;102136.63;5068960;28;20059;-85
2022/10/11 00:55:54;;;;;;;16.83;4.15;;;;;;;6.20;100.00;102130.38;5051388;28;20034;-84
2022/10/11 00:58:22;;;;;;;19.80;4.03;;;;;;;6.21;100.00;102132.13;5042723;28;20058;-84
2022/10/11 01:00:48;;;;;;;16.80;4.00;;;;;;;6.17;100.00;102142.25;5025873;28;20044;-83
2022/10/11 01:03:16;;;;;;;17.65;4.10;;;;;;;6.49;100.00;102155.50;5054118;28;20381;-83
2022/10/11 01:05:43;;;;;;;13.95;3.85;;;;;;;6.37;100.00;102152.31;5040658;28;20507;-84
2022/10/11 01:08:08;;;;;;;9.00;4.18;;;;;;;6.52;100.00;102150.78;5042153;28;20172;-84
2022/10/11 01:10:34;;;;;;;17.20;4.00;;;;;;;6.32;100.00;102154.34;5024946;28;20052;-85
2022/10/11 01:13:02;;;;;;;14.68;4.30;;;;;;;6.37;100.00;102151.44;5024190;28;20062;-84
2022/10/11 01:15:58;;;;;;;19.15;4.85;;;;;;;6.50;100.00;102152.72;5049491;28;20043;-85
2022/10/11 01:18:41;;;;;;;12.93;3.58;;;;;;;6.55;100.00;102157.97;5061174;28;20028;-84
2022/10/11 01:21:25;;;;;;;12.02;4.45;;;;;;;6.28;100.00;102152.72;5042762;28;20094;-85
2022/10/11 01:24:09;;;;;;;18.50;3.95;;;;;;;6.22;100.00;102156.53;5058863;28;20037;-84
2022/10/11 01:26:56;;;;;;;12.75;4.88;;;;;;;6.30;100.00;102152.66;5045682;28;20029;-85
2022/10/11 01:29:54;;;;;;;17.17;4.95;;;;;;;6.27;100.00;102158.22;5067305;28;20025;-85
2022/10/11 01:32:27;;;;;;;12.60;4.70;;;;;;;6.21;100.00;102151.16;5042234;28;20477;-84
2022/10/11 01:35:14;;;;;;;;;;;;;;;6.41;100.00;102153.06;5049000;28;20048;-85
2022/10/11 01:37:45;;;;;;;17.23;3.95;;;;;;;6.29;100.00;102154.47;5061753;28;19975;-86
2022/10/11 01:40:20;;;;;;;14.10;3.95;;;;;;;6.21;100.00;102162.03;5058915;28;20029;-85
2022/10/11 01:42:46;;;;;;;15.23;4.20;;;;;;;6.01;100.00;102151.97;5041262;28;20028;-85
2022/10/11 01:45:15;;;;;;;7.28;4.28;;;;;;;5.94;100.00;102164.00;5059421;28;20037;-84
2022/10/11 01:47:41;;;;;;;18.23;4.70;;;;;;;6.04;100.00;102166.31;5061622;28;20025;-83
2022/10/11 01:50:29;;;;;;;24.63;4.55;;;;;;;6.28;100.00;102157.25;5042447;28;20049;-84
2022/10/11 01:52:59;;;;;;;18.95;4.57;;;;;;;6.33;100.00;102168.81;5066987;28;20033;-84
2022/10/11 01:55:35;;;;;;;13.93;4.57;;;;;;;6.21;100.00;102143.88;5038685;28;20029;-84
2022/10/11 01:58:30;;;;;;;11.15;3.80;;;;;;;6.25;100.00;102171.88;5058811;28;20032;-83
2022/10/11 02:01:08;;;;;;;9.07;3.80;;;;;;;6.13;100.00;102161.47;5032751;28;20044;-83
2022/10/11 02:03:56;;;;;;;11.90;4.65;;;;;;;5.96;100.00;102160.28;5064090;28;20059;-83
2022/10/11 02:06:42;;;;;;;14.75;4.25;;;;;;;5.99;100.00;102171.03;5042741;28;20030;-83
2022/10/11 02:09:38;;;;;;;16.75;4.80;;;;;;;5.97;100.00;102177.47;5052956;28;20033;-83
2022/10/11 02:12:11;;;;;;;13.18;4.20;;;;;;;5.98;100.00;102169.25;5056922;28;20045;-83
2022/10/11 02:14:43;;;;;;;10.82;3.88;;;;;;;5.95;100.00;102172.09;5040514;28;20546;-83
2022/10/11 02:17:19;;;;;;;10.93;4.45;;;;;;;6.18;100.00;102175.75;5062082;28;20028;-84
2022/10/11 02:19:51;;;;;;;12.05;4.03;;;;;;;6.16;100.00;102173.09;5046231;28;20063;-83
2022/10/11 02:22:23;;;;;;;15.55;4.32;;;;;;;5.96;100.00;102183.84;5077926;28;20104;-84
2022/10/11 02:24:54;;;;;;;12.32;4.38;;;;;;;5.89;100.00;102181.34;5044169;28;20040;-83
2022/10/11 02:27:24;;;;;;;15.90;4.53;;;;;;;5.79;100.00;102182.66;5059617;28;20025;-82
2022/10/11 02:29:52;;;;;;;14.60;4.40;;;;;;;5.70;100.00;102180.25;5045828;28;20032;-83
2022/10/11 02:32:19;;;;;;;21.98;4.85;;;;;;;5.62;100.00;102182.38;5079844;28;20037;-83
2022/10/11 02:34:53;;;;;;;14.05;4.63;;;;;;;5.71;100.00;102180.22;5046307;28;20116;-84
2022/10/11 02:37:30;;;;;;;17.80;4.32;;;;;;;5.83;100.00;102186.13;5046640;28;20120;-84
2022/10/11 02:40:20;;;;;;;11.60;3.97;;;;;;;5.92;100.00;102184.88;5047244;28;20029;-84
2022/10/11 02:43:12;;;;;;;10.07;4.50;;;;;;;5.74;100.00;102183.75;5048624;28;20119;-83
2022/10/11 02:45:41;;;;;;;23.23;4.35;;;;;;;5.74;100.00;102184.66;5058872;28;20041;-84
2022/10/11 02:48:10;;;;;;;17.38;4.57;;;;;;;5.89;100.00;102184.06;5048078;28;20017;-84
2022/10/11 02:50:38;;;;;;;13.93;4.05;;;;;;;5.96;100.00;102181.13;5063833;28;20049;-84
2022/10/11 02:53:04;;;;;;;11.55;4.03;;;;;;;5.93;100.00;102184.81;5056749;28;20037;-84
2022/10/11 02:55:30;;;;;;;22.02;4.70;;;;;;;5.79;100.00;102163.63;5029917;28;20598;-84
2022/10/11 02:57:55;;;;;;;19.30;4.35;;;;;;;5.96;100.00;102172.97;5041278;28;20029;-84
2022/10/11 03:00:21;;;;;;;8.40;3.65;;;;;;;5.82;100.00;102189.78;5046704;28;20045;-83
2022/10/11 03:02:46;;;;;;;16.42;4.85;;;;;;;5.77;100.00;102186.34;5026242;28;20044;-84
2022/10/11 03:05:12;;;;;;;14.18;4.43;;;;;;;5.66;100.00;102190.38;5045467;28;20091;-84
2022/10/11 03:07:37;;;;;;;14.20;4.00;;;;;;;5.64;100.00;102194.97;5067135;28;20033;-84
2022/10/11 03:10:04;;;;;;;9.07;3.60;;;;;;;5.62;100.00;102196.84;5052953;28;20029;-84
2022/10/11 03:12:30;;;;;;;3.75;2.20;;;;;;;5.45;100.00;102189.31;5041026;28;20496;-84
2022/10/11 03:14:55;;;;;;;6.50;2.30;;;;;;;5.59;100.00;102194.25;5055011;28;20041;-85
2022/10/11 03:17:21;;;;;;;6.22;3.08;;;;;;;5.52;100.00;102190.84;5069534;28;20028;-84
2022/10/11 03:19:47;;;;;;;9.68;4.10;;;;;;;5.42;100.00;102196.69;5045545;28;20037;-84
2022/10/11 03:22:12;;;;;;;15.05;3.75;;;;;;;5.47;100.00;102190.13;5041473;28;20058;-84
2022/10/11 03:24:38;;;;;;;11.32;3.17;;;;;;;5.73;100.00;102192.88;5058535;28;20041;-84
2022/10/11 03:27:03;;;;;;;12.02;2.67;;;;;;;5.48;100.00;102186.50;5080978;28;20029;-84
2022/10/11 03:29:28;;;;;;;11.68;3.20;;;;;;;5.28;100.00;102180.88;5064530;28;20051;-84
2022/10/11 03:31:54;;;;;;;8.93;3.63;;;;;;;5.23;100.00;102200.06;5029575;28;20024;-84
2022/10/11 03:34:19;;;;;;;7.82;3.63;;;;;;;5.03;100.00;102178.16;5028302;28;20044;-85
2022/10/11 03:36:45;;;;;;;9.73;3.55;;;;;;;4.97;100.00;102187.41;5063880;28;20048;-85
2022/10/11 03:39:11;;;;;;;10.80;3.92;;;;;;;5.05;100.00;102204.31;5060062;28;20053;-85
2022/10/11 03:41:36;;;;;;;12.30;4.25;;;;;;;5.28;100.00;102206.22;5012122;28;20033;-85
2022/10/11 03:44:02;;;;;;;6.88;4.03;;;;;;;5.36;100.00;102215.91;5034700;28;20039;-84
2022/10/11 03:46:28;;;;;;;13.77;3.75;;;;;;;5.04;100.00;102202.53;5045905;28;20037;-85
2022/10/11 03:48:53;;;;;;;9.45;3.60;;;;;;;5.01;100.00;102210.78;5064672;28;20036;-85
2022/10/11 03:51:19;;;;;;;12.35;3.83;;;;;;;5.19;100.00;102217.41;5029990;28;20491;-85
2022/10/11 03:53:44;;;;;;;9.65;4.07;;;;;;;5.27;100.00;102220.72;5043597;28;20033;-87
2022/10/11 03:56:10;;;;;;;9.50;3.78;;;;;;;5.20;100.00;102223.69;5031026;28;20061;-87
2022/10/11 03:58:35;;;;;;;13.10;4.40;;;;;;;5.26;100.00;102227.13;5022062;28;20090;-86
2022/10/11 04:01:01;;;;;;;7.90;3.70;;;;;;;5.30;100.00;102228.78;5030365;28;20051;-85
2022/10/11 04:03:26;;;;;;;9.93;3.72;;;;;;;5.27;100.00;102223.44;5049073;28;20041;-85
2022/10/11 04:05:52;;;;;;;10.43;3.50;;;;;;;5.23;100.00;102232.66;5068246;28;20064;-84
2022/10/11 04:08:17;;;;;;;8.63;3.22;;;;;;;5.15;100.00;102226.59;5028401;28;20114;-84
2022/10/11 04:10:47;;;;;;;11.70;3.45;;;;;;;5.02;100.00;102233.34;5045562;28;20052;-85
2022/10/11 04:13:12;;;;;;;11.27;3.38;;;;;;;4.92;100.00;102228.25;5060750;28;20053;-85
2022/10/11 04:15:38;;;;;;;6.82;3.03;;;;;;;5.11;100.00;102224.91;5044893;28;20048;-85
2022/10/11 04:18:05;;;;;;;9.13;3.50;;;;;;;5.03;100.00;102229.72;5029008;28;20029;-85
2022/10/11 04:20:31;;;;;;;9.75;3.42;;;;;;;5.00;100.00;102240.69;5044859;28;20045;-85
2022/10/11 04:22:56;;;;;;;10.93;3.60;;;;;;;4.81;100.00;102240.41;5044699;28;20084;-85
2022/10/11 04:25:21;;;;;;;9.27;3.47;;;;;;;4.90;100.00;102240.09;5028879;28;20048;-86
2022/10/11 04:27:47;;;;;;;11.10;4.15;;;;;;;4.98;100.00;102232.59;5026031;28;20028;-85
2022/10/11 04:30:13;;;;;;;6.85;3.53;;;;;;;5.06;100.00;102243.19;5025997;28;20068;-84
2022/10/11 04:32:39;;;;;;;10.10;3.88;;;;;;;5.09;100.00;102251.22;5060632;28;20121;-80
2022/10/11 04:35:05;;;;;;;9.18;3.25;;;;;;;4.94;100.00;102248.09;5027182;28;20426;-83
2022/10/11 04:37:30;;;;;;;6.88;3.25;;;;;;;5.11;100.00;102244.78;5061611;28;20039;-83
2022/10/11 04:39:56;;;;;;;8.07;3.05;;;;;;;5.11;100.00;102249.34;5041437;28;20063;-83
2022/10/11 04:42:21;;;;;;;7.90;2.50;;;;;;;4.90;100.00;102256.38;5064932;28;20078;-80
2022/10/11 04:44:47;;;;;;;4.72;2.58;;;;;;;4.82;100.00;102251.22;5049020;28;20044;-79
2022/10/11 04:47:12;;;;;;;7.55;2.33;;;;;;;4.61;100.00;102258.22;5038243;28;20044;-81
2022/10/11 04:49:38;;;;;;;4.53;2.95;;;;;;;4.54;100.00;102253.91;5042629;28;20037;-82
2022/10/11 04:52:03;;;;;;;10.27;3.25;;;;;;;4.84;100.00;102262.00;5039940;28;20021;-82
2022/10/11 04:54:29;;;;;;;6.38;2.97;;;;;;;4.92;100.00;102266.25;5037654;28;20021;-80
2022/10/11 04:56:54;;;;;;;10.57;3.33;;;;;;;4.86;100.00;102263.72;5045740;28;20075;-80
2022/10/11 04:59:20;;;;;;;9.52;3.53;;;;;;;4.53;100.00;102255.72;5056384;28;20020;-81
2022/10/11 05:01:46;;;;;;;9.88;3.85;;;;;;;4.62;100.00;102261.81;5069816;28;20392;-82
2022/10/11 05:04:12;;;;;;;13.48;3.65;;;;;;;4.69;100.00;102244.38;5054512;28;20117;-82
2022/10/11 05:06:37;;;;;;;16.30;3.60;;;;;;;4.74;100.00;102258.72;5046250;28;20437;-83
2022/10/11 05:09:03;;;;;;;12.00;4.25;;;;;;;4.77;100.00;102262.22;5046036;28;20120;-83
2022/10/11 05:11:28;;;;;;;14.27;4.00;;;;;;;4.81;100.00;102267.56;5045277;28;20147;-83
2022/10/11 05:13:55;;;;;;;7.53;3.28;;;;;;;4.75;100.00;102269.50;5017142;28;20049;-84
2022/10/11 05:16:21;;;;;;;6.05;2.40;;;;;;;4.77;100.00;102266.72;5044827;28;20059;-83
2022/10/11 05:18:46;;;;;;;13.10;3.13;;;;;;;4.66;100.00;102272.50;5045935;28;20033;-83
2022/10/11 05:21:20;;;;;;;5.47;2.33;;;;;;;4.59;100.00;102281.75;5026421;28;20037;-83
2022/10/11 05:23:48;;;;;;;9.43;3.30;;;;;;;4.69;100.00;102283.28;5044913;28;20037;-84
2022/10/11 05:26:14;;;;;;;8.32;2.55;;;;;;;4.71;100.00;102283.22;5062569;28;20033;-83
2022/10/11 05:28:40;;;;;;;5.32;2.85;;;;;;;4.69;100.00;102274.22;5078351;28;20389;-83
2022/10/11 05:31:05;;;;;;;9.70;3.05;;;;;;;4.68;100.00;102265.22;5052871;28;20042;-83
2022/10/11 05:33:31;;;;;;;5.78;2.95;;;;;;;4.66;100.00;102287.91;5022428;28;20144;-82
2022/10/11 05:35:56;;;;;;;5.82;2.55;;;;;;;4.40;100.00;102295.91;5051667;28;20033;-81
2022/10/11 05:38:22;;;;;;;9.15;3.40;;;;;;;4.33;100.00;102296.13;5062494;28;20052;-81
2022/10/11 05:40:48;;;;;;;11.25;4.35;;;;;;;4.41;100.00;102291.34;5044471;28;20041;-83
2022/10/11 05:43:13;;;;;;;11.98;4.15;;;;;;;4.32;100.00;102300.66;5061637;28;20037;-81
2022/10/11 05:45:40;;;;;;;10.27;4.57;;;;;;;4.45;100.00;102294.88;5045370;28;20534;-82
2022/10/11 05:48:07;;;;;;;9.55;3.38;;;;;;;4.46;100.00;102297.56;5076996;28;20424;-81
2022/10/11 05:50:33;;;;;;;9.38;4.07;;;;;;;4.24;100.00;102297.28;5045625;28;20051;-81
2022/10/11 05:52:58;;;;;;;8.55;3.70;;;;;;;4.21;100.00;102298.28;5047321;28;20044;-82
2022/10/11 05:55:24;;;;;;;9.60;3.75;;;;;;;4.31;100.00;102290.78;5063162;28;20025;-82
2022/10/11 05:57:55;;;;;;;9.00;3.75;;;;;;;4.23;100.00;102293.69;5043032;28;20057;-81
2022/10/11 06:00:21;;;;;;;12.15;4.28;;;;;;;4.18;100.00;102302.88;5074496;28;20035;-82
2022/10/11 06:02:46;;;;;;;12.07;3.72;;;;;;;4.24;100.00;102309.00;5030484;28;20503;-82
2022/10/11 06:05:12;;;;;;;12.27;4.40;;;;;;;4.37;100.00;102312.25;5063364;28;20029;-79
2022/10/11 06:07:38;;;;;;;6.82;3.92;;;;;;;4.47;100.00;102312.00;5061658;28;20029;-82
2022/10/11 06:10:05;;;;;;;17.83;4.05;;;;;;;4.44;100.00;102312.97;5045745;28;20103;-81
2022/10/11 06:12:31;;;;;;;9.30;4.35;;;;;;;4.41;100.00;102305.81;5059640;28;20057;-82
2022/10/11 06:14:56;;;;;;;13.07;4.80;;;;;;;4.68;100.00;102315.88;5038716;28;20028;-82
2022/10/11 06:17:22;;;;;;;17.10;4.43;;;;;;;4.56;100.00;102315.31;5046527;28;20489;-81
2022/10/11 06:19:48;;;;;;;12.63;3.80;;;;;;;4.83;100.00;102323.53;5030373;28;20403;-83
2022/10/11 06:22:14;;;;;;;16.75;4.13;;;;;;;4.88;100.00;102316.13;5044211;28;20024;-82
2022/10/11 06:24:39;;;;;;;10.20;4.13;;;;;;;4.78;100.00;102306.50;5063103;28;20536;-82
2022/10/11 06:27:05;;;;;;;8.38;3.58;;;;;;;4.91;100.00;102313.31;5049226;28;20437;-81
2022/10/11 06:29:31;;;;;;;7.10;3.33;;;;;;;4.87;100.00;102325.22;5047459;28;20586;-83
2022/10/11 06:31:57;;;;;;;11.27;3.70;;;;;;;4.83;100.00;102328.94;5055429;28;20033;-84
2022/10/11 06:34:24;;;;;;;9.50;3.85;;;;;;;4.82;100.00;102345.28;5045405;28;20388;-83
2022/10/11 06:36:49;;;;;;;15.43;4.03;;;;;;;4.97;100.00;102342.09;5044797;28;20044;-83
2022/10/11 06:39:15;;;;;;;21.23;4.85;;;;;;;5.01;100.00;102335.63;5042328;28;20337;-82
2022/10/11 06:41:40;;;;;;;11.45;3.85;;;;;;;5.09;100.00;102338.09;5026290;28;20036;-83
2022/10/11 06:44:05;;;;;;;9.40;4.18;;;;;;;5.24;100.00;102334.88;5059348;28;20086;-82
2022/10/11 06:46:34;;;;;;;8.35;4.50;;;;;;;5.30;100.00;102331.97;5058217;28;20033;-84
2022/10/11 06:49:00;;;;;;;9.57;4.25;;;;;;;5.24;100.00;102340.31;5031962;28;20041;-83
2022/10/11 06:51:27;;;;;;;13.73;5.07;;;;;;;5.58;100.00;102347.34;5042737;28;20595;-82
2022/10/11 06:53:56;;;;;;;15.30;5.05;;;;;;;5.61;100.00;102344.53;5055712;28;20040;-82
2022/10/11 06:56:22;;;;;;;12.27;4.95;;;;;;;5.58;100.00;102344.63;5045200;28;20029;-83
2022/10/11 06:58:49;;;;;;;15.35;5.38;;;;;;;5.84;100.00;102353.72;5060385;28;20477;-82
2022/10/11 07:01:17;;;;;;;10.95;4.85;;;;;;;5.77;100.00;102352.13;5059450;28;20044;-81
2022/10/11 07:03:44;;;;;;;15.38;5.90;;;;;;;5.82;100.00;102352.84;5029197;28;20412;-83
2022/10/11 07:06:12;;;;;;;17.50;5.47;;;;;;;6.13;100.00;102355.41;5044448;28;20044;-83
2022/10/11 07:08:38;;;;;;;21.70;5.85;;;;;;;6.13;100.00;102368.13;5061762;28;20033;-82
2022/10/11 07:11:15;;;;;;;10.13;5.60;;;;;;;6.12;100.00;102355.47;5045921;28;20374;-82
2022/10/11 07:13:41;;;;;;;19.00;6.28;;;;;;;6.13;100.00;102351.81;5031030;28;20060;-82
2022/10/11 07:16:09;;;;;;;24.58;6.53;;;;;;;6.19;100.00;102370.63;5028178;28;20056;-81
2022/10/11 07:18:55;;;;;;;21.08;6.72;;;;;;;6.61;100.00;102376.31;5009722;28;20455;-82
2022/10/11 07:21:21;;;;;;;13.60;6.25;;;;;;;6.76;100.00;102366.66;5055175;28;20075;-80
2022/10/11 07:23:46;;;;;;;16.48;6.07;;;;;;;6.63;100.00;102359.91;5063367;28;20037;-81
2022/10/11 07:26:12;;;;;;;20.65;6.53;;;;;;;6.63;100.00;102370.81;5037607;28;20044;-80
2022/10/11 07:28:38;;;;;;;14.43;6.28;;;;;;;7.19;100.00;102374.97;5059045;28;20035;-80
2022/10/11 07:31:06;;;;;;;17.23;7.07;;;;;;;7.05;100.00;102383.69;5055548;28;20056;-81
2022/10/11 07:33:32;;;;;;;16.77;7.38;;;;;;;7.06;100.00;102380.00;5059625;28;20033;-80
2022/10/11 07:35:58;;;;;;;19.35;8.40;;;;;;;7.01;100.00;102349.34;5058124;28;20087;-80
2022/10/11 07:38:24;;;;;;;21.20;9.15;;;;;;;7.11;100.00;102375.25;5052956;28;20037;-80
2022/10/11 07:40:49;;;;;;;19.48;9.32;;;;;;;7.36;100.00;102377.91;5060114;28;20032;-79
2022/10/11 07:43:15;;;;;;;21.38;9.35;;;;;;;7.49;100.00;102381.00;5074292;28;20481;-78
2022/10/11 07:45:43;;;;;;;26.85;9.57;;;;;;;7.67;100.00;102383.88;5077464;28;20033;-79
2022/10/11 07:48:10;;;;;;;19.75;9.35;;;;;;;7.99;100.00;102376.19;5040369;28;20049;-81
2022/10/11 07:50:35;;;;;;;19.65;10.10;;;;;;;7.87;100.00;102383.94;5057094;28;20034;-82
2022/10/11 07:53:01;;;;;;;20.70;9.25;;;;;;;8.20;100.00;102386.16;5037172;28;20029;-82
2022/10/11 07:55:29;;;;;;;28.88;10.40;;;;;;;8.46;100.00;102379.53;5026503;28;20028;-82
2022/10/11 07:57:55;;;;;;;29.02;9.45;;;;;;;8.62;100.00;102387.94;5042570;28;20030;-81
2022/10/11 08:00:21;;;;;;;18.20;9.45;;;;;;;8.70;100.00;102390.28;5052608;28;20025;-81
2022/10/11 08:02:46;;;;;;;28.40;10.07;;;;;;;8.89;100.00;102386.69;5027392;28;20060;-80
2022/10/11 08:05:12;;;;;;;17.50;8.05;;;;;;;9.09;100.00;102388.47;5059412;28;20044;-81
2022/10/11 08:07:38;;;;;;;27.58;8.95;;;;;;;9.33;100.00;102390.00;5057493;28;20107;-81
2022/10/11 08:10:05;;;;;;;21.27;8.07;;;;;;;9.45;100.00;102393.09;5057569;28;20047;-81
2022/10/11 08:12:30;;;;;;;20.50;6.68;;;;;;;9.54;100.00;102396.28;5074311;28;20060;-81
2022/10/11 08:14:56;;;;;;;21.38;7.07;;;;;;;9.80;100.00;102410.47;5045957;28;20036;-81
2022/10/11 08:17:22;;;;;;;26.88;7.85;;;;;;;9.92;100.00;102408.97;5057953;28;20029;-81
2022/10/11 08:19:48;;;;;;;19.40;7.50;;;;;;;9.91;100.00;102402.59;5028918;28;20043;-80
2022/10/11 08:22:13;;;;;;;24.17;8.02;;;;;;;10.38;100.00;102406.59;5029049;28;20040;-80
2022/10/11 08:24:39;;;;;;;17.58;6.90;;;;;;;10.58;100.00;102407.38;5027857;28;20029;-80
2022/10/11 08:27:04;;;;;;;19.38;7.72;;;;;;;10.61;100.00;102405.34;5047386;28;20036;-81
2022/10/11 08:29:31;;;;;;;20.17;7.47;;;;;;;11.14;100.00;102408.81;5031274;28;20132;-81
2022/10/11 08:31:57;;;;;;;23.25;7.28;;;;;;;11.53;100.00;102412.97;5063855;28;20025;-81
2022/10/11 08:34:22;;;;;;;20.75;6.97;;;;;;;11.86;100.00;102417.47;5030139;28;20040;-80
2022/10/11 08:36:48;;;;;;;23.05;6.57;;;;;;;12.17;100.00;102417.50;5062723;28;20035;-80
2022/10/11 08:39:13;;;;;;;19.27;6.47;;;;;;;12.20;100.00;102417.31;5062650;28;20126;-80
2022/10/11 08:42:22;;;;;;;14.10;6.10;;;;;;;12.54;100.00;102424.34;5062093;28;20041;-80
2022/10/11 08:44:57;;;;;;;18.35;5.82;;;;;;;13.12;100.00;102413.38;5072984;28;20044;-81
2022/10/11 08:47:26;;;;;;;14.40;5.45;;;;;;;12.72;100.00;102424.19;5059532;28;20037;-83
2022/10/11 08:49:52;;;;;;;18.13;6.22;;;;;;;12.99;100.00;102418.81;5059673;28;20029;-80
2022/10/11 08:52:38;;;;;;;16.92;4.95;;;;;;;13.63;100.00;102427.50;5046273;28;20025;-79
2022/10/11 08:55:09;;;;;;;13.95;4.50;;;;;;;14.06;100.00;102419.06;5048049;28;20055;-83
2022/10/11 08:57:37;;;;;;;14.90;5.47;;;;;;;13.91;100.00;102420.13;5044679;28;20039;-80
2022/10/11 09:00:15;;;;;;;13.43;4.97;;;;;;;14.01;100.00;102426.75;5060134;28;20025;-81
2022/10/11 09:03:09;;;;;;;21.23;4.22;;;;;;;15.03;100.00;102425.13;5062247;28;20041;-81
2022/10/11 09:05:48;;;;;;;11.88;3.72;;;;;;;14.84;100.00;102425.63;5061793;28;20025;-80
2022/10/11 09:08:23;;;;;;;16.73;4.25;;;;;;;14.63;100.00;102415.13;5061182;28;20033;-80
2022/10/11 09:10:54;;;;;;;13.32;4.22;;;;;;;14.64;100.00;102424.25;5062173;28;20064;-81
2022/10/11 09:13:33;;;;;;;51.72;5.47;;;;;;;14.26;100.00;102428.69;5042901;28;20068;-79
2022/10/11 09:16:08;;;;;;;14.77;3.75;;;;;;;14.62;100.00;102429.88;5059196;28;20032;-81
2022/10/11 09:19:04;;;;;;;15.90;3.60;;;;;;;14.73;100.00;102428.25;5050286;28;20048;-81
2022/10/11 09:21:44;;;;;;;16.75;3.05;;;;;;;15.20;100.00;102432.16;5058148;28;20036;-78
2022/10/11 09:24:25;;;;;;;13.23;2.78;;;;;;;15.78;100.00;102432.50;5058007;28;20036;-79
2022/10/11 09:26:55;;;;;;;16.98;3.08;;;;;;;15.95;100.00;102428.44;5053896;28;20052;-81
2022/10/11 09:29:30;;;;;;;10.98;3.00;;;;;;;15.76;100.00;102428.97;5042642;28;20040;-80
2022/10/11 09:31:57;;;;;;;14.60;2.67;;;;;;;15.73;100.00;102430.06;5057845;28;20029;-79
2022/10/11 09:34:31;;;;;;;5.68;1.42;;;;;;;15.50;100.00;102434.53;5055837;28;20050;-80
2022/10/11 09:37:12;;;;;;;11.02;1.83;;;;;;;15.42;100.00;102428.72;5042781;28;20041;-79
2022/10/11 09:39:46;;;;;;;17.35;1.98;;;;;;;14.86;100.00;102434.66;5048666;28;20044;-81
2022/10/11 09:42:12;;;;;;;20.98;2.67;;;;;;;15.18;100.00;102432.31;5041270;28;20084;-80
2022/10/11 09:44:49;;;;;;;14.30;1.85;;;;;;;15.63;100.00;102429.88;5023381;28;20440;-80
2022/10/11 09:47:26;;;;;;;14.82;2.17;;;;;;;15.85;100.00;102427.38;5059260;28;20043;-80
2022/10/11 09:50:24;;;;;;;12.38;1.98;;;;;;;16.28;100.00;102433.25;5055315;28;20048;-80
2022/10/11 09:52:58;;;;;;;15.80;2.15;;;;;;;16.05;100.00;102428.63;5057373;28;20033;-80
2022/10/11 09:55:49;;;;;;;14.82;2.22;;;;;;;16.04;100.00;102433.25;5052906;28;20456;-81
2022/10/11 09:58:34;;;;;;;11.52;1.67;;;;;;;15.92;100.00;102428.66;5051478;28;20028;-81
2022/10/11 10:01:10;;;;;;;10.00;1.80;;;;;;;16.12;100.00;102429.91;5055142;28;20038;-81
2022/10/11 10:03:37;;;;;;;10.15;1.60;;;;;;;16.11;100.00;102426.25;5042718;28;20056;-81
2022/10/11 10:06:15;;;;;;;13.23;2.15;;;;;;;15.87;100.00;102426.28;5059906;28;20036;-82
2022/10/11 10:08:46;;;;;;;14.93;2.00;;;;;;;16.09;100.00;102424.63;5042856;28;20025;-82
2022/10/11 10:11:13;;;;;;;9.82;1.70;;;;;;;15.92;100.00;102417.63;5056205;28;20037;-80
2022/10/11 10:13:51;;;;;;;8.80;1.40;;;;;;;15.87;100.00;102425.38;5039110;28;20049;-80
2022/10/11 10:16:29;;;;;;;10.35;2.13;;;;;;;15.99;100.00;102425.31;5061679;28;20399;-81
2022/10/11 10:19:00;;;;;;;13.63;1.75;;;;;;;15.70;100.00;102418.34;5075553;28;20079;-81
2022/10/11 10:21:35;;;;;;;6.45;1.50;;;;;;;15.96;100.00;102417.28;5059090;28;20476;-81
2022/10/11 10:24:07;;;;;;;21.10;3.10;;;;;;;16.46;100.00;102432.78;5043224;28;20485;-82
2022/10/11 10:26:33;;;;;;;13.90;1.60;;;;;;;16.27;100.00;102420.41;5043122;28;20499;-81
2022/10/11 10:29:07;;;;;;;7.47;1.38;;;;;;;16.24;100.00;102430.84;5043379;28;20061;-81
2022/10/11 10:31:47;;;;;;;13.25;1.65;;;;;;;16.28;100.00;102424.97;5059978;28;20035;-82
2022/10/11 10:34:25;;;;;;;15.60;1.70;;;;;;;16.09;100.00;102424.63;5042243;28;20078;-82
2022/10/11 10:36:55;;;;;;;9.35;1.40;;;;;;;15.82;100.00;102425.72;5062306;28;20104;-82
2022/10/11 10:39:35;;;;;;;11.45;1.30;;;;;;;15.42;100.00;102421.31;5046678;28;20040;-82
2022/10/11 10:42:03;;;;;;;10.52;1.33;;;;;;;16.11;100.00;102417.97;5068136;28;20100;-82
2022/10/11 10:44:30;;;;;;;10.60;1.40;;;;;;;15.78;100.00;102414.03;5049811;28;20037;-82
2022/10/11 10:47:19;;;;;;;12.73;1.70;;;;;;;15.98;100.00;102418.03;5057366;28;20041;-80
2022/10/11 10:50:05;;;;;;;9.90;1.55;;;;;;;16.01;100.00;102418.81;5049581;28;20025;-82
2022/10/11 10:53:17;;;;;;;11.18;1.45;;;;;;;16.69;100.00;102418.03;5049529;28;20132;-81
2022/10/11 10:55:46;;;;;;;11.00;1.38;;;;;;;16.23;100.00;102421.66;5043117;28;20101;-81
2022/10/11 10:58:17;;;;;;;12.75;1.30;;;;;;;16.57;100.00;102426.41;5058697;28;20112;-82
2022/10/11 11:00:54;;;;;;;13.52;1.08;;;;;;;16.23;100.00;102416.13;5044024;28;20034;-81
2022/10/11 11:03:19;;;;;;;12.38;1.92;;;;;;;16.34;100.00;102420.81;5058581;28;20044;-81
2022/10/11 11:06:00;;;;;;;6.53;1.33;;;;;;;16.14;100.00;102414.09;5058138;28;20041;-82
2022/10/11 11:08:43;;;;;;;9.55;1.25;;;;;;;16.03;100.00;102414.03;5052520;28;20036;-80
2022/10/11 11:11:27;;;;;;;17.35;2.03;;;;;;;16.17;100.00;102419.38;5061969;28;20033;-81
2022/10/11 11:13:56;;;;;;;7.00;1.20;;;;;;;16.16;100.00;102410.19;5056695;28;20041;-80
2022/10/11 11:16:33;;;;;;;10.85;1.83;;;;;;;15.84;100.00;102407.19;5070314;28;20088;-81
2022/10/11 11:19:12;;;;;;;8.75;1.25;;;;;;;16.09;100.00;102417.22;5046613;28;20040;-81
2022/10/11 11:21:50;;;;;;;11.30;1.45;;;;;;;15.91;100.00;102411.22;5062695;28;20037;-81
2022/10/11 11:24:21;;;;;;;10.32;1.65;;;;;;;15.92;100.00;102404.72;5062220;28;20060;-80
2022/10/11 11:26:58;;;;;;;9.88;1.52;;;;;;;15.95;100.00;102409.09;5062371;28;20037;-82
2022/10/11 11:29:52;;;;;;;11.48;1.45;;;;;;;15.71;100.00;102406.28;5061971;28;20485;-80
2022/10/11 11:32:20;;;;;;;12.80;1.63;;;;;;;15.80;100.00;102402.88;5060503;28;20041;-81